Time,TemperatureF,DewpointF,PressureIn,WindDirection,WindDirectionDegrees,WindSpeedMPH,WindSpeedGustMPH,Humidity,HourlyPrecipIn,Conditions,Clouds,dailyrainin,SoftwareType,DateUTC
2013-03-06 00:00:00,36.1,33.3,30.04,ENE,57,3.0,5.0,89,0.00,,,0.00,meteohub,2013-03-06 05:00:00,
2013-03-06 00:01:00,36.3,33.4,30.04,ENE,57,4.0,5.0,89,0.00,,,0.00,meteohub,2013-03-06 05:01:00,
2013-03-06 00:06:00,36.3,33.4,30.04,ENE,57,3.0,5.0,89,0.00,,,0.00,meteohub,2013-03-06 05:06:00,
2013-03-06 00:11:00,36.1,33.3,30.04,ENE,57,5.0,5.0,89,0.00,,,0.00,meteohub,2013-03-06 05:11:00,
2013-03-06 00:16:00,36.1,33.4,30.04,ENE,57,5.0,5.0,90,0.00,,,0.00,meteohub,2013-03-06 05:16:00,
2013-03-06 00:22:00,36.5,33.8,30.04,ENE,57,3.0,6.0,90,0.00,,,0.00,meteohub,2013-03-06 05:22:00,
2013-03-06 00:27:00,36.7,34.0,30.04,ENE,57,5.0,6.0,90,0.00,,,0.00,meteohub,2013-03-06 05:27:00,
2013-03-06 00:32:00,36.9,34.2,30.04,ENE,57,7.0,7.0,90,0.00,,,0.00,meteohub,2013-03-06 05:32:00,
2013-03-06 00:37:00,36.9,34.2,30.04,ENE,57,5.0,7.0,90,0.00,,,0.00,meteohub,2013-03-06 05:37:00,
2013-03-06 00:42:00,36.9,34.2,30.04,ENE,57,5.0,7.0,90,0.00,,,0.00,meteohub,2013-03-06 05:42:00,
2013-03-06 00:47:00,36.7,33.8,30.04,ENE,57,5.0,7.0,89,0.00,,,0.00,meteohub,2013-03-06 05:47:00,
2013-03-06 00:52:00,36.7,33.8,30.04,ENE,57,8.0,8.0,89,0.00,,,0.00,meteohub,2013-03-06 05:52:00,
2013-03-06 00:57:00,36.9,34.0,30.04,ENE,57,4.0,7.0,89,0.00,,,0.00,meteohub,2013-03-06 05:57:00,
2013-03-06 01:02:00,37.0,34.2,30.04,ENE,57,6.0,8.0,89,0.00,,,0.00,meteohub,2013-03-06 06:02:00,
2013-03-06 01:07:00,37.0,34.2,30.03,ENE,57,5.0,10.0,89,0.00,,,0.00,meteohub,2013-03-06 06:07:00,
2013-03-06 01:12:00,37.0,34.2,30.03,ENE,57,4.0,10.0,89,0.00,,,0.00,meteohub,2013-03-06 06:12:00,
2013-03-06 01:17:00,37.2,34.3,30.03,ENE,57,3.0,10.0,89,0.00,,,0.00,meteohub,2013-03-06 06:17:00,
2013-03-06 01:22:00,37.2,34.3,30.03,ENE,57,6.0,10.0,89,0.00,,,0.00,meteohub,2013-03-06 06:22:00,
2013-03-06 01:27:00,37.4,34.5,30.03,ENE,57,7.0,11.0,89,0.00,,,0.00,meteohub,2013-03-06 06:27:00,
2013-03-06 01:32:00,37.6,34.7,30.03,ENE,57,6.0,11.0,89,0.00,,,0.00,meteohub,2013-03-06 06:32:00,
2013-03-06 01:37:00,37.8,34.5,30.02,ENE,57,4.0,11.0,88,0.00,,,0.00,meteohub,2013-03-06 06:37:00,
2013-03-06 01:42:00,37.8,34.5,30.02,NE,44,3.0,11.0,88,0.00,,,0.00,meteohub,2013-03-06 06:42:00,
2013-03-06 01:47:00,37.8,34.5,30.02,NE,40,10.0,12.0,88,0.00,,,0.00,meteohub,2013-03-06 06:47:00,
2013-03-06 01:52:00,37.8,34.5,30.01,NE,38,8.0,12.0,88,0.00,,,0.00,meteohub,2013-03-06 06:52:00,
2013-03-06 01:57:00,37.9,34.7,30.01,NE,36,8.0,12.0,88,0.00,,,0.00,meteohub,2013-03-06 06:57:00,
2013-03-06 02:02:00,37.9,34.7,30.01,NE,34,7.0,12.0,88,0.00,,,0.00,meteohub,2013-03-06 07:02:00,
2013-03-06 02:07:00,37.8,34.2,30.01,NE,34,8.0,12.0,87,0.00,,,0.00,meteohub,2013-03-06 07:07:00,
2013-03-06 02:12:00,37.8,34.2,30.01,NNE,32,6.0,11.0,87,0.00,,,0.00,meteohub,2013-03-06 07:12:00,
2013-03-06 02:17:00,37.8,34.2,30.01,NNE,28,8.0,11.0,87,0.00,,,0.00,meteohub,2013-03-06 07:17:00,
2013-03-06 02:22:00,37.9,34.3,30.01,NNE,30,9.0,12.0,87,0.00,,,0.00,meteohub,2013-03-06 07:22:00,
2013-03-06 02:27:00,37.9,34.3,30.01,NNE,30,8.0,12.0,87,0.00,,,0.00,meteohub,2013-03-06 07:27:00,
2013-03-06 02:32:00,37.9,34.3,30.01,NNE,26,8.0,13.0,87,0.00,,,0.00,meteohub,2013-03-06 07:32:00,
2013-03-06 02:37:00,37.9,34.3,30.01,NNE,27,7.0,13.0,87,0.00,,,0.00,meteohub,2013-03-06 07:37:00,
2013-03-06 02:42:00,37.9,34.3,30.01,NNE,28,8.0,13.0,87,0.00,,,0.00,meteohub,2013-03-06 07:42:00,
2013-03-06 02:47:00,37.9,34.3,30.00,NNE,22,6.0,13.0,87,0.00,,,0.00,meteohub,2013-03-06 07:47:00,
2013-03-06 02:52:00,37.9,34.3,30.00,NNE,27,6.0,14.0,87,0.00,,,0.00,meteohub,2013-03-06 07:52:00,
2013-03-06 02:57:00,37.9,34.3,30.00,NNE,25,6.0,14.0,87,0.00,,,0.00,meteohub,2013-03-06 07:57:00,
2013-03-06 03:02:00,37.9,34.3,30.00,NNE,24,10.0,14.0,87,0.00,,,0.00,meteohub,2013-03-06 08:02:00,
2013-03-06 03:07:00,37.9,34.3,30.00,NNE,32,8.0,14.0,87,0.00,,,0.00,meteohub,2013-03-06 08:07:00,
2013-03-06 03:12:00,38.1,34.5,30.00,NNE,30,8.0,18.0,87,0.00,,,0.00,meteohub,2013-03-06 08:12:00,
2013-03-06 03:17:00,38.1,34.3,30.00,NNE,24,8.0,18.0,86,0.00,,,0.00,meteohub,2013-03-06 08:17:00,
2013-03-06 03:22:00,38.1,34.3,30.00,NNE,27,6.0,18.0,86,0.00,,,0.00,meteohub,2013-03-06 08:22:00,
2013-03-06 03:28:00,38.3,34.7,29.99,NNE,24,11.0,19.0,87,0.00,,,0.00,meteohub,2013-03-06 08:28:00,
2013-03-06 03:33:00,38.5,34.9,29.99,NE,45,11.0,19.0,87,0.00,,,0.00,meteohub,2013-03-06 08:33:00,
2013-03-06 03:38:00,38.5,34.9,29.99,NNE,19,12.0,20.0,87,0.00,,,0.00,meteohub,2013-03-06 08:38:00,
2013-03-06 03:43:00,38.7,35.1,29.98,NNE,17,21.0,21.0,87,0.00,,,0.00,meteohub,2013-03-06 08:43:00,
2013-03-06 03:48:00,38.8,35.2,29.98,NNE,27,8.0,21.0,87,0.00,,,0.00,meteohub,2013-03-06 08:48:00,
2013-03-06 03:53:00,38.8,35.2,29.98,NNE,25,9.0,21.0,87,0.00,,,0.00,meteohub,2013-03-06 08:53:00,
2013-03-06 03:58:00,38.8,35.2,29.97,NE,51,12.0,21.0,87,0.00,,,0.00,meteohub,2013-03-06 08:58:00,
2013-03-06 04:03:00,38.8,35.2,29.98,NNE,19,12.0,22.0,87,0.00,,,0.00,meteohub,2013-03-06 09:03:00,
2013-03-06 04:08:00,38.8,35.2,29.97,NNW,341,11.0,22.0,87,0.00,,,0.00,meteohub,2013-03-06 09:08:00,
2013-03-06 04:13:00,38.8,35.2,29.97,North,5,12.0,22.0,87,0.00,,,0.00,meteohub,2013-03-06 09:13:00,
2013-03-06 04:18:00,38.8,35.2,29.97,NNE,31,5.0,21.0,87,0.00,,,0.00,meteohub,2013-03-06 09:18:00,
2013-03-06 04:23:00,38.8,35.2,29.96,NE,42,7.0,22.0,87,0.00,,,0.00,meteohub,2013-03-06 09:23:00,
2013-03-06 04:28:00,39.0,35.4,29.96,NNE,16,8.0,22.0,87,0.00,,,0.00,meteohub,2013-03-06 09:28:00,
2013-03-06 04:33:00,39.0,35.2,29.96,NNE,24,11.0,23.0,86,0.00,,,0.00,meteohub,2013-03-06 09:33:00,
2013-03-06 04:38:00,38.8,35.1,29.96,North,0,11.0,23.0,86,0.00,,,0.00,meteohub,2013-03-06 09:38:00,
2013-03-06 04:43:00,38.8,35.1,29.96,North,355,14.0,23.0,86,0.00,,,0.00,meteohub,2013-03-06 09:43:00,
2013-03-06 04:48:00,39.0,34.9,29.96,NE,40,16.0,23.0,85,0.00,,,0.00,meteohub,2013-03-06 09:48:00,
2013-03-06 04:53:00,38.8,34.7,29.96,NNE,32,10.0,23.0,85,0.00,,,0.00,meteohub,2013-03-06 09:53:00,
2013-03-06 04:58:00,38.8,35.1,29.96,NNE,29,15.0,26.0,86,0.00,,,0.00,meteohub,2013-03-06 09:58:00,
2013-03-06 05:03:00,38.8,35.1,29.96,NNE,29,11.0,26.0,86,0.00,,,0.00,meteohub,2013-03-06 10:03:00,
2013-03-06 05:08:00,38.8,35.1,29.97,North,0,11.0,24.0,86,0.00,,,0.00,meteohub,2013-03-06 10:08:00,
2013-03-06 05:13:00,38.8,35.1,29.97,NNE,30,18.0,24.0,86,0.00,,,0.00,meteohub,2013-03-06 10:13:00,
2013-03-06 05:18:00,39.0,35.4,29.97,NE,46,10.0,24.0,87,0.00,,,0.00,meteohub,2013-03-06 10:18:00,
2013-03-06 05:23:00,39.0,35.4,29.97,NNE,32,8.0,24.0,87,0.00,,,0.00,meteohub,2013-03-06 10:23:00,
2013-03-06 05:28:00,39.0,35.4,29.97,NNW,336,9.0,22.0,87,0.00,,,0.00,meteohub,2013-03-06 10:28:00,
2013-03-06 05:33:00,39.0,35.4,29.97,NE,42,18.0,22.0,87,0.00,,,0.00,meteohub,2013-03-06 10:33:00,
2013-03-06 05:39:00,39.0,35.4,29.97,NE,35,16.0,22.0,87,0.00,,,0.00,meteohub,2013-03-06 10:39:00,
2013-03-06 05:44:00,39.0,35.2,29.97,NE,35,10.0,22.0,86,0.00,,,0.00,meteohub,2013-03-06 10:44:00,
2013-03-06 05:49:00,39.0,35.2,29.97,NE,35,9.0,22.0,86,0.00,,,0.00,meteohub,2013-03-06 10:49:00,
2013-03-06 05:54:00,39.0,35.2,29.97,North,355,10.0,22.0,86,0.00,,,0.00,meteohub,2013-03-06 10:54:00,
2013-03-06 05:59:00,39.0,35.2,29.97,NNE,17,13.0,21.0,86,0.00,,,0.00,meteohub,2013-03-06 10:59:00,
2013-03-06 06:04:00,39.0,35.4,29.97,North,5,11.0,21.0,87,0.00,,,0.00,meteohub,2013-03-06 11:04:00,
2013-03-06 06:09:00,39.2,35.6,29.97,NNE,19,13.0,22.0,87,0.00,,,0.00,meteohub,2013-03-06 11:09:00,
2013-03-06 06:14:00,39.0,35.4,29.97,NNE,27,14.0,22.0,87,0.00,,,0.00,meteohub,2013-03-06 11:14:00,
2013-03-06 06:19:00,39.0,35.4,29.97,NE,39,9.0,20.0,87,0.00,,,0.00,meteohub,2013-03-06 11:19:00,
2013-03-06 06:24:00,39.0,35.4,29.97,North,5,12.0,20.0,87,0.00,,,0.00,meteohub,2013-03-06 11:24:00,
2013-03-06 06:29:00,39.0,35.4,29.97,NNE,19,12.0,22.0,87,0.00,,,0.00,meteohub,2013-03-06 11:29:00,
2013-03-06 06:34:00,39.0,35.4,29.96,NNE,25,12.0,22.0,87,0.00,,,0.00,meteohub,2013-03-06 11:34:00,
2013-03-06 06:39:00,39.0,35.2,29.96,NNE,21,6.0,22.0,86,0.00,,,0.00,meteohub,2013-03-06 11:39:00,
2013-03-06 06:44:00,39.0,35.2,29.96,NE,34,17.0,23.0,86,0.00,,,0.00,meteohub,2013-03-06 11:44:00,
2013-03-06 06:49:00,39.2,35.4,29.96,NNE,13,11.0,23.0,86,0.00,,,0.00,meteohub,2013-03-06 11:49:00,
2013-03-06 06:54:00,39.4,35.8,29.96,North,11,14.0,23.0,87,0.00,,,0.00,meteohub,2013-03-06 11:54:00,
2013-03-06 06:59:00,39.6,36.0,29.96,NE,39,13.0,23.0,87,0.00,,,0.00,meteohub,2013-03-06 11:59:00,
2013-03-06 07:04:00,39.6,36.0,29.96,North,11,15.0,23.0,87,0.00,,,0.00,meteohub,2013-03-06 12:04:00,
2013-03-06 07:09:00,39.7,36.0,29.95,NNE,33,13.0,23.0,86,0.00,,,0.00,meteohub,2013-03-06 12:09:00,
2013-03-06 07:14:00,39.7,36.0,29.95,NNE,26,10.0,27.0,86,0.00,,,0.00,meteohub,2013-03-06 12:14:00,
2013-03-06 07:19:00,39.7,36.0,29.94,North,10,17.0,27.0,86,0.00,,,0.00,meteohub,2013-03-06 12:19:00,
2013-03-06 07:24:00,39.9,36.1,29.94,SSW,195,9.0,27.0,86,0.00,,,0.00,meteohub,2013-03-06 12:24:00,
2013-03-06 07:29:00,39.9,35.8,29.94,NNE,30,14.0,30.0,85,0.00,,,0.00,meteohub,2013-03-06 12:29:00,
2013-03-06 07:34:00,39.9,35.8,29.94,NNE,17,21.0,30.0,85,0.00,,,0.00,meteohub,2013-03-06 12:34:00,
2013-03-06 07:39:00,40.1,36.0,29.94,NNW,347,18.0,30.0,85,0.00,,,0.00,meteohub,2013-03-06 12:39:00,
2013-03-06 07:44:00,40.3,35.8,29.95,West,264,8.0,33.0,84,0.00,,,0.00,meteohub,2013-03-06 12:44:00,
2013-03-06 07:49:00,40.3,35.8,29.95,NNE,12,20.0,33.0,84,0.00,,,0.00,meteohub,2013-03-06 12:49:00,
2013-03-06 07:54:00,40.5,35.8,29.95,NE,36,23.0,32.0,83,0.00,,,0.00,meteohub,2013-03-06 12:54:00,
2013-03-06 07:59:00,40.5,35.8,29.95,NNE,23,22.0,32.0,83,0.00,,,0.00,meteohub,2013-03-06 12:59:00,
2013-03-06 08:04:00,40.6,36.0,29.95,East,82,17.0,32.0,83,0.00,,,0.00,meteohub,2013-03-06 13:04:00,
2013-03-06 08:09:00,40.6,35.6,29.95,North,351,11.0,34.0,82,0.00,,,0.00,meteohub,2013-03-06 13:09:00,
2013-03-06 08:14:00,40.6,36.0,29.95,NE,46,20.0,36.0,83,0.00,,,0.00,meteohub,2013-03-06 13:14:00,
2013-03-06 08:20:00,40.8,36.1,29.95,NE,42,26.0,36.0,83,0.00,,,0.00,meteohub,2013-03-06 13:20:00,
2013-03-06 08:25:00,40.8,36.1,29.95,NNE,24,17.0,36.0,83,0.00,,,0.00,meteohub,2013-03-06 13:25:00,
2013-03-06 08:30:00,40.8,36.1,29.96,ESE,105,16.0,34.0,83,0.00,,,0.00,meteohub,2013-03-06 13:30:00,
2013-03-06 08:35:00,41.0,36.3,29.95,NNW,348,23.0,34.0,83,0.00,,,0.00,meteohub,2013-03-06 13:35:00,
2013-03-06 08:40:00,41.2,36.5,29.95,NE,44,28.0,36.0,83,0.00,,,0.00,meteohub,2013-03-06 13:40:00,
2013-03-06 08:45:00,41.2,36.5,29.94,ENE,61,20.0,36.0,83,0.00,,,0.00,meteohub,2013-03-06 13:45:00,
2013-03-06 08:50:00,41.2,36.5,29.95,NE,38,31.0,37.0,83,0.00,,,0.00,meteohub,2013-03-06 13:50:00,
2013-03-06 08:55:00,41.2,36.5,29.94,NNE,12,23.0,38.0,83,0.00,,,0.00,meteohub,2013-03-06 13:55:00,
2013-03-06 09:00:00,41.2,36.7,29.95,NNE,32,25.0,38.0,84,0.00,,,0.00,meteohub,2013-03-06 14:00:00,
2013-03-06 09:05:00,41.2,36.7,29.95,ENE,64,17.0,38.0,84,0.00,,,0.00,meteohub,2013-03-06 14:05:00,
2013-03-06 09:10:00,41.4,37.2,29.95,NNE,25,28.0,40.0,85,0.00,,,0.00,meteohub,2013-03-06 14:10:00,
2013-03-06 09:15:00,41.4,36.9,29.95,NE,55,21.0,40.0,84,0.00,,,0.00,meteohub,2013-03-06 14:15:00,
2013-03-06 09:20:00,41.5,37.0,29.95,NNE,30,27.0,40.0,84,0.00,,,0.00,meteohub,2013-03-06 14:20:00,
2013-03-06 09:25:00,41.5,36.7,29.94,NE,41,20.0,40.0,83,0.00,,,0.00,meteohub,2013-03-06 14:25:00,
2013-03-06 09:30:00,41.5,37.0,29.94,ENE,77,25.0,40.0,84,0.00,,,0.00,meteohub,2013-03-06 14:30:00,
2013-03-06 09:35:00,41.5,36.7,29.94,North,355,29.0,48.0,83,0.00,,,0.00,meteohub,2013-03-06 14:35:00,
2013-03-06 09:40:00,41.5,36.7,29.94,NE,40,20.0,48.0,83,0.00,,,0.00,meteohub,2013-03-06 14:40:00,
2013-03-06 09:45:00,41.5,36.7,29.94,NNE,21,20.0,48.0,83,0.00,,,0.00,meteohub,2013-03-06 14:45:00,
2013-03-06 09:50:00,41.7,36.7,29.94,NNE,30,25.0,48.0,82,0.00,,,0.00,meteohub,2013-03-06 14:50:00,
2013-03-06 09:55:00,41.7,36.7,29.94,NE,40,31.0,43.0,82,0.00,,,0.00,meteohub,2013-03-06 14:55:00,
2013-03-06 10:00:00,41.7,36.9,29.94,NNE,22,24.0,43.0,83,0.00,,,0.00,meteohub,2013-03-06 15:00:00,
2013-03-06 10:05:00,41.7,36.9,29.94,NNE,32,24.0,43.0,83,0.00,,,0.00,meteohub,2013-03-06 15:05:00,
2013-03-06 10:10:00,41.7,36.9,29.94,North,355,29.0,48.0,83,0.00,,,0.00,meteohub,2013-03-06 15:10:00,
2013-03-06 10:15:00,42.1,37.0,29.94,NNE,22,35.0,48.0,82,0.00,,,0.00,meteohub,2013-03-06 15:15:00,
2013-03-06 10:20:00,42.1,37.0,29.94,NNW,347,26.0,48.0,82,0.00,,,0.00,meteohub,2013-03-06 15:20:00,
2013-03-06 10:25:00,42.1,37.2,29.93,North,0,30.0,48.0,83,0.00,,,0.00,meteohub,2013-03-06 15:25:00,
2013-03-06 10:30:00,41.7,37.6,29.94,NNW,331,20.0,48.0,85,0.00,,,0.00,meteohub,2013-03-06 15:30:00,
2013-03-06 10:35:00,41.4,37.6,29.94,NE,54,24.0,42.0,86,0.00,,,0.00,meteohub,2013-03-06 15:35:00,
2013-03-06 10:40:00,41.5,37.9,29.94,ENE,62,14.0,42.0,87,0.00,,,0.00,meteohub,2013-03-06 15:40:00,
2013-03-06 10:46:00,41.4,37.6,29.93,ENE,67,31.0,42.0,86,0.00,,,0.00,meteohub,2013-03-06 15:46:00,
2013-03-06 10:51:00,41.7,37.8,29.94,NNE,26,18.0,43.0,86,0.00,,,0.00,meteohub,2013-03-06 15:51:00,
2013-03-06 10:56:00,41.9,37.8,29.93,NNW,329,17.0,43.0,85,0.00,,,0.00,meteohub,2013-03-06 15:56:00,
2013-03-06 11:01:00,41.4,37.6,29.94,NNE,20,19.0,43.0,86,0.00,,,0.00,meteohub,2013-03-06 16:01:00,
2013-03-06 11:06:00,41.4,37.6,29.94,NE,42,23.0,43.0,86,0.00,,,0.00,meteohub,2013-03-06 16:06:00,
2013-03-06 11:11:00,41.4,37.2,29.93,NNE,15,32.0,48.0,85,0.00,,,0.00,meteohub,2013-03-06 16:11:00,
2013-03-06 11:16:00,41.7,37.2,29.93,NE,39,23.0,46.0,84,0.00,,,0.00,meteohub,2013-03-06 16:16:00,
2013-03-06 11:21:00,42.1,37.0,29.93,North,5,28.0,46.0,82,0.00,,,0.00,meteohub,2013-03-06 16:21:00,
2013-03-06 11:26:00,42.1,36.7,29.93,NNE,30,31.0,49.0,81,0.00,,,0.00,meteohub,2013-03-06 16:26:00,
2013-03-06 11:31:00,42.3,36.5,29.92,NNE,17,27.0,49.0,80,0.00,,,0.00,meteohub,2013-03-06 16:31:00,
2013-03-06 11:36:00,42.3,36.5,29.92,NE,52,37.0,49.0,80,0.00,,,0.00,meteohub,2013-03-06 16:36:00,
2013-03-06 11:41:00,42.6,36.5,29.92,WNW,298,23.0,49.0,79,0.00,,,0.00,meteohub,2013-03-06 16:41:00,
2013-03-06 11:46:00,42.8,36.5,29.92,NE,36,34.0,50.0,78,0.00,,,0.00,meteohub,2013-03-06 16:46:00,
2013-03-06 11:51:00,42.6,36.0,29.92,NE,41,32.0,50.0,77,0.00,,,0.00,meteohub,2013-03-06 16:51:00,
2013-03-06 11:56:00,42.6,36.0,29.91,NE,50,35.0,50.0,77,0.00,,,0.00,meteohub,2013-03-06 16:56:00,
2013-03-06 12:01:00,42.4,35.8,29.91,NE,42,36.0,50.0,77,0.00,,,0.00,meteohub,2013-03-06 17:01:00,
2013-03-06 12:06:00,43.0,36.0,29.91,NNE,17,32.0,50.0,76,0.00,,,0.00,meteohub,2013-03-06 17:06:00,
2013-03-06 12:11:00,43.3,35.6,29.90,NE,55,36.0,50.0,74,0.00,,,0.00,meteohub,2013-03-06 17:11:00,
2013-03-06 12:16:00,43.5,35.4,29.90,NNW,335,19.0,50.0,73,0.00,,,0.00,meteohub,2013-03-06 17:16:00,
2013-03-06 12:21:00,43.3,34.9,29.90,NNE,30,27.0,48.0,72,0.00,,,0.00,meteohub,2013-03-06 17:21:00,
2013-03-06 12:26:00,43.3,34.9,29.90,East,96,25.0,48.0,72,0.00,,,0.00,meteohub,2013-03-06 17:26:00,
2013-03-06 12:31:00,43.5,35.1,29.90,NNW,342,13.0,48.0,72,0.00,,,0.00,meteohub,2013-03-06 17:31:00,
2013-03-06 12:36:00,43.7,35.6,29.90,NE,39,31.0,48.0,73,0.00,,,0.00,meteohub,2013-03-06 17:36:00,
2013-03-06 12:41:00,43.5,35.1,29.90,NNE,18,38.0,51.0,72,0.00,,,0.00,meteohub,2013-03-06 17:41:00,
2013-03-06 12:46:00,43.3,34.9,29.89,North,11,20.0,51.0,72,0.00,,,0.00,meteohub,2013-03-06 17:46:00,
2013-03-06 12:51:00,43.3,35.2,29.89,NNE,19,8.0,47.0,73,0.00,,,0.00,meteohub,2013-03-06 17:51:00,
2013-03-06 12:56:00,43.3,35.6,29.90,NNE,27,12.0,47.0,74,0.00,,,0.00,meteohub,2013-03-06 17:56:00,
2013-03-06 13:01:00,43.0,34.9,29.89,NNE,15,25.0,47.0,73,0.00,,,0.00,meteohub,2013-03-06 18:01:00,
2013-03-06 13:06:00,43.0,35.2,29.89,NE,35,26.0,47.0,74,0.00,,,0.00,meteohub,2013-03-06 18:06:00,
2013-03-06 13:11:00,43.0,35.2,29.89,ENE,73,28.0,46.0,74,0.00,,,0.00,meteohub,2013-03-06 18:11:00,
2013-03-06 13:16:00,42.8,35.1,29.89,NE,54,20.0,46.0,74,0.00,,,0.00,meteohub,2013-03-06 18:16:00,
2013-03-06 13:21:00,42.3,34.9,29.89,North,9,27.0,37.0,75,0.00,,,0.00,meteohub,2013-03-06 18:21:00,
2013-03-06 13:26:00,42.3,35.2,29.89,NNE,28,19.0,37.0,76,0.00,,,0.00,meteohub,2013-03-06 18:26:00,
2013-03-06 13:31:00,42.1,35.1,29.90,NNW,332,15.0,47.0,76,0.00,,,0.00,meteohub,2013-03-06 18:31:00,
2013-03-06 13:36:00,42.3,34.9,29.89,ENE,61,18.0,47.0,75,0.00,,,0.00,meteohub,2013-03-06 18:36:00,
2013-03-06 13:41:00,42.1,35.1,29.89,NE,44,14.0,47.0,76,0.00,,,0.00,meteohub,2013-03-06 18:41:00,
2013-03-06 13:46:00,42.1,35.1,29.89,NNE,31,22.0,38.0,76,0.00,,,0.00,meteohub,2013-03-06 18:46:00,
2013-03-06 13:51:00,41.9,34.9,29.89,North,5,24.0,38.0,76,0.00,,,0.00,meteohub,2013-03-06 18:51:00,
2013-03-06 13:56:00,41.7,35.1,29.89,NE,35,25.0,40.0,77,0.00,,,0.00,meteohub,2013-03-06 18:56:00,
2013-03-06 14:01:00,41.7,35.1,29.89,NNE,31,12.0,40.0,77,0.00,,,0.00,meteohub,2013-03-06 19:01:00,
2013-03-06 14:06:00,41.7,35.1,29.89,NNE,19,15.0,38.0,77,0.00,,,0.00,meteohub,2013-03-06 19:06:00,
2013-03-06 14:11:00,41.7,35.1,29.88,NE,35,28.0,38.0,77,0.00,,,0.00,meteohub,2013-03-06 19:11:00,
2013-03-06 14:16:00,41.7,34.7,29.88,NE,35,23.0,38.0,76,0.00,,,0.00,meteohub,2013-03-06 19:16:00,
2013-03-06 14:21:00,41.7,34.7,29.88,NE,53,18.0,45.0,76,0.00,,,0.00,meteohub,2013-03-06 19:21:00,
2013-03-06 14:27:00,41.7,34.7,29.88,NE,39,44.0,45.0,76,0.00,,,0.00,meteohub,2013-03-06 19:27:00,
2013-03-06 14:32:00,41.7,34.7,29.88,NNE,24,20.0,44.0,76,0.00,,,0.00,meteohub,2013-03-06 19:32:00,
2013-03-06 14:37:00,42.1,35.1,29.88,NNW,346,17.0,44.0,76,0.00,,,0.00,meteohub,2013-03-06 19:37:00,
2013-03-06 14:42:00,42.1,35.1,29.87,NNE,19,14.0,44.0,76,0.00,,,0.00,meteohub,2013-03-06 19:42:00,
2013-03-06 14:47:00,42.1,35.1,29.87,NNE,30,19.0,44.0,76,0.00,,,0.00,meteohub,2013-03-06 19:47:00,
2013-03-06 14:52:00,42.1,35.1,29.87,NNE,25,27.0,42.0,76,0.00,,,0.00,meteohub,2013-03-06 19:52:00,
2013-03-06 14:57:00,41.7,35.1,29.86,NNW,331,24.0,42.0,77,0.00,,,0.00,meteohub,2013-03-06 19:57:00,
2013-03-06 15:02:00,41.7,35.1,29.86,North,11,30.0,35.0,77,0.00,,,0.00,meteohub,2013-03-06 20:02:00,
2013-03-06 15:07:00,41.7,34.3,29.86,NNE,27,32.0,35.0,75,0.00,,,0.00,meteohub,2013-03-06 20:07:00,
2013-03-06 15:12:00,41.9,34.9,29.86,NNE,17,18.0,43.0,76,0.00,,,0.00,meteohub,2013-03-06 20:12:00,
2013-03-06 15:17:00,41.9,34.9,29.86,North,0,34.0,43.0,76,0.00,,,0.00,meteohub,2013-03-06 20:17:00,
2013-03-06 15:22:00,41.7,34.3,29.86,NNE,15,37.0,42.0,75,0.00,,,0.00,meteohub,2013-03-06 20:22:00,
2013-03-06 15:27:00,41.7,34.7,29.86,NNE,23,27.0,42.0,76,0.00,,,0.00,meteohub,2013-03-06 20:27:00,
2013-03-06 15:32:00,41.5,34.5,29.86,North,5,23.0,43.0,76,0.00,,,0.00,meteohub,2013-03-06 20:32:00,
2013-03-06 15:37:00,41.5,34.5,29.86,NNE,16,24.0,43.0,76,0.00,,,0.00,meteohub,2013-03-06 20:37:00,
2013-03-06 15:42:00,41.5,35.2,29.86,North,0,39.0,51.0,78,0.00,,,0.00,meteohub,2013-03-06 20:42:00,
2013-03-06 15:47:00,41.5,34.9,29.86,NE,47,23.0,51.0,77,0.00,,,0.00,meteohub,2013-03-06 20:47:00,
2013-03-06 15:52:00,41.5,35.2,29.86,NNE,25,30.0,56.0,78,0.00,,,0.00,meteohub,2013-03-06 20:52:00,
2013-03-06 15:57:00,41.5,35.2,29.86,NNE,15,12.0,56.0,78,0.00,,,0.00,meteohub,2013-03-06 20:57:00,
2013-03-06 16:02:00,41.5,35.2,29.86,NNE,32,40.0,50.0,78,0.00,,,0.00,meteohub,2013-03-06 21:02:00,
2013-03-06 16:07:00,41.5,35.2,29.86,NNE,32,29.0,50.0,78,0.00,,,0.00,meteohub,2013-03-06 21:07:00,
2013-03-06 16:12:00,41.4,35.1,29.86,NE,48,31.0,49.0,78,0.00,,,0.00,meteohub,2013-03-06 21:12:00,
2013-03-06 16:17:00,41.4,35.1,29.85,NNE,15,33.0,49.0,78,0.00,,,0.00,meteohub,2013-03-06 21:17:00,
2013-03-06 16:22:00,41.4,35.1,29.85,NNE,14,34.0,49.0,78,0.00,,,0.00,meteohub,2013-03-06 21:22:00,
2013-03-06 16:27:00,41.4,35.1,29.85,NNE,28,33.0,49.0,78,0.00,,,0.00,meteohub,2013-03-06 21:27:00,
2013-03-06 16:32:00,41.2,35.4,29.86,NE,37,30.0,48.0,80,0.00,,,0.00,meteohub,2013-03-06 21:32:00,
2013-03-06 16:38:00,41.0,35.6,29.86,NNE,17,27.0,48.0,81,0.00,,,0.00,meteohub,2013-03-06 21:38:00,
2013-03-06 16:43:00,40.8,35.4,29.86,NNE,17,28.0,47.0,81,0.00,,,0.00,meteohub,2013-03-06 21:43:00,
2013-03-06 16:48:00,40.8,35.4,29.85,NNE,26,21.0,47.0,81,0.00,,,0.00,meteohub,2013-03-06 21:48:00,
2013-03-06 16:53:00,40.6,35.2,29.85,NNE,24,19.0,50.0,81,0.00,,,0.00,meteohub,2013-03-06 21:53:00,
2013-03-06 16:58:00,40.5,35.4,29.86,NNE,15,25.0,50.0,82,0.00,,,0.00,meteohub,2013-03-06 21:58:00,
2013-03-06 17:03:00,40.3,35.2,29.86,NNE,28,42.0,50.0,82,0.00,,,0.00,meteohub,2013-03-06 22:03:00,
2013-03-06 17:08:00,40.3,35.6,29.86,NNE,32,24.0,50.0,83,0.00,,,0.00,meteohub,2013-03-06 22:08:00,
2013-03-06 17:13:00,40.5,35.1,29.85,NE,39,37.0,48.0,81,0.00,,,0.00,meteohub,2013-03-06 22:13:00,
2013-03-06 17:18:00,40.5,35.1,29.86,East,101,18.0,48.0,81,0.00,,,0.00,meteohub,2013-03-06 22:18:00,
2013-03-06 17:23:00,40.5,35.1,29.86,NNE,22,37.0,47.0,81,0.00,,,0.00,meteohub,2013-03-06 22:23:00,
2013-03-06 17:28:00,40.5,34.7,29.86,NNE,22,27.0,47.0,80,0.00,,,0.00,meteohub,2013-03-06 22:28:00,
2013-03-06 17:33:00,40.6,34.9,29.87,WNW,296,20.0,50.0,80,0.00,,,0.00,meteohub,2013-03-06 22:33:00,
2013-03-06 17:38:00,40.6,34.9,29.87,NE,35,35.0,50.0,80,0.00,,,0.00,meteohub,2013-03-06 22:38:00,
2013-03-06 17:43:00,40.6,34.7,29.86,NNE,32,31.0,50.0,79,0.00,,,0.00,meteohub,2013-03-06 22:43:00,
2013-03-06 17:48:00,40.6,34.7,29.87,NE,34,22.0,50.0,79,0.00,,,0.00,meteohub,2013-03-06 22:48:00,
2013-03-06 17:53:00,40.6,34.7,29.87,NNE,20,33.0,46.0,79,0.00,,,0.00,meteohub,2013-03-06 22:53:00,
2013-03-06 17:58:00,40.6,34.3,29.88,NNE,21,27.0,46.0,78,0.00,,,0.00,meteohub,2013-03-06 22:58:00,
2013-03-06 18:03:00,40.6,34.7,29.88,North,355,29.0,51.0,79,0.00,,,0.00,meteohub,2013-03-06 23:03:00,
2013-03-06 18:08:00,40.5,34.5,29.88,NNE,30,36.0,51.0,79,0.00,,,0.00,meteohub,2013-03-06 23:08:00,
2013-03-06 18:13:00,40.3,34.5,29.88,NE,34,36.0,51.0,80,0.00,,,0.00,meteohub,2013-03-06 23:13:00,
2013-03-06 18:18:00,40.1,34.5,29.88,North,355,27.0,51.0,80,0.00,,,0.00,meteohub,2013-03-06 23:18:00,
2013-03-06 18:23:00,39.7,34.7,29.87,NNE,16,42.0,51.0,82,0.00,,,0.00,meteohub,2013-03-06 23:23:00,
2013-03-06 18:28:00,39.7,34.7,29.87,North,0,26.0,54.0,82,0.00,,,0.00,meteohub,2013-03-06 23:28:00,
2013-03-06 18:33:00,39.6,34.9,29.87,North,5,24.0,54.0,83,0.00,,,0.00,meteohub,2013-03-06 23:33:00,
2013-03-06 18:38:00,39.4,34.9,29.88,NNE,22,27.0,54.0,84,0.00,,,0.00,meteohub,2013-03-06 23:38:00,
2013-03-06 18:43:00,39.4,35.2,29.88,NNE,28,39.0,54.0,85,0.00,,,0.00,meteohub,2013-03-06 23:43:00,
2013-03-06 18:48:00,39.2,35.1,29.88,ENE,59,24.0,45.0,85,0.00,,,0.00,meteohub,2013-03-06 23:48:00,
2013-03-06 18:53:00,39.0,35.2,29.88,NNE,13,25.0,45.0,86,0.00,,,0.00,meteohub,2013-03-06 23:53:00,
2013-03-06 18:58:00,38.8,35.1,29.88,NNE,15,29.0,45.0,86,0.00,,,0.00,meteohub,2013-03-06 23:58:00,
2013-03-06 19:03:00,38.8,35.2,29.88,NNE,13,27.0,45.0,87,0.00,,,0.00,meteohub,2013-03-07 00:03:00,
2013-03-06 19:08:00,38.8,35.2,29.87,NNE,18,37.0,48.0,87,0.00,,,0.00,meteohub,2013-03-07 00:08:00,
2013-03-06 19:13:00,38.7,35.1,29.88,NNE,13,34.0,48.0,87,0.00,,,0.00,meteohub,2013-03-07 00:13:00,
2013-03-06 19:18:00,38.7,35.1,29.88,North,11,32.0,48.0,87,0.00,,,0.00,meteohub,2013-03-07 00:18:00,
2013-03-06 19:23:00,38.7,35.4,29.87,North,11,29.0,44.0,88,0.00,,,0.00,meteohub,2013-03-07 00:23:00,
2013-03-06 19:28:00,38.5,35.2,29.87,East,79,33.0,44.0,88,0.00,,,0.00,meteohub,2013-03-07 00:28:00,
2013-03-06 19:33:00,38.7,35.1,29.87,NNE,15,22.0,46.0,87,0.00,,,0.00,meteohub,2013-03-07 00:33:00,
2013-03-06 19:39:00,38.7,35.1,29.87,North,5,40.0,46.0,87,0.00,,,0.00,meteohub,2013-03-07 00:39:00,
2013-03-06 19:44:00,38.8,35.2,29.87,NNE,17,31.0,53.0,87,0.00,,,0.00,meteohub,2013-03-07 00:44:00,
2013-03-06 19:49:00,38.8,35.1,29.88,NNE,24,32.0,53.0,86,0.00,,,0.00,meteohub,2013-03-07 00:49:00,
2013-03-06 19:54:00,39.0,34.9,29.88,NNE,15,31.0,53.0,85,0.00,,,0.00,meteohub,2013-03-07 00:54:00,
2013-03-06 19:59:00,39.0,34.5,29.88,North,9,26.0,53.0,84,0.00,,,0.00,meteohub,2013-03-07 00:59:00,
2013-03-06 20:04:00,39.0,34.9,29.88,North,9,40.0,47.0,85,0.00,,,0.00,meteohub,2013-03-07 01:04:00,
2013-03-06 20:09:00,38.8,34.3,29.88,NNE,13,46.0,47.0,84,0.00,,,0.00,meteohub,2013-03-07 01:09:00,
2013-03-06 20:14:00,38.8,34.7,29.88,North,355,32.0,53.0,85,0.00,,,0.00,meteohub,2013-03-07 01:14:00,
2013-03-06 20:19:00,38.8,34.3,29.88,North,355,33.0,53.0,84,0.00,,,0.00,meteohub,2013-03-07 01:19:00,
2013-03-06 20:24:00,38.8,34.3,29.88,North,10,34.0,53.0,84,0.00,,,0.00,meteohub,2013-03-07 01:24:00,
2013-03-06 20:29:00,38.8,34.3,29.88,North,355,31.0,53.0,84,0.00,,,0.00,meteohub,2013-03-07 01:29:00,
2013-03-06 20:34:00,38.8,34.7,29.87,North,0,33.0,49.0,85,0.00,,,0.00,meteohub,2013-03-07 01:34:00,
2013-03-06 20:39:00,38.7,34.5,29.88,NNE,23,28.0,49.0,85,0.00,,,0.00,meteohub,2013-03-07 01:39:00,
2013-03-06 20:44:00,38.7,34.5,29.88,NNE,24,33.0,50.0,85,0.00,,,0.00,meteohub,2013-03-07 01:44:00,
2013-03-06 20:49:00,38.8,34.7,29.88,NE,50,24.0,50.0,85,0.00,,,0.00,meteohub,2013-03-07 01:49:00,
2013-03-06 20:54:00,38.8,34.3,29.88,NNE,25,22.0,47.0,84,0.00,,,0.00,meteohub,2013-03-07 01:54:00,
2013-03-06 20:59:00,38.8,34.3,29.88,NNE,28,20.0,47.0,84,0.00,,,0.00,meteohub,2013-03-07 01:59:00,
2013-03-06 21:04:00,38.8,34.3,29.88,NNE,22,23.0,53.0,84,0.00,,,0.00,meteohub,2013-03-07 02:04:00,
2013-03-06 21:09:00,38.7,34.5,29.88,North,5,28.0,53.0,85,0.00,,,0.00,meteohub,2013-03-07 02:09:00,
2013-03-06 21:14:00,38.5,34.7,29.89,North,0,28.0,43.0,86,0.00,,,0.00,meteohub,2013-03-07 02:14:00,
2013-03-06 21:19:00,38.1,34.3,29.89,NNE,15,28.0,43.0,86,0.00,,,0.00,meteohub,2013-03-07 02:19:00,
2013-03-06 21:24:00,38.1,34.5,29.89,NNE,24,26.0,41.0,87,0.00,,,0.00,meteohub,2013-03-07 02:24:00,
2013-03-06 21:29:00,37.9,34.3,29.89,North,9,24.0,41.0,87,0.00,,,0.00,meteohub,2013-03-07 02:29:00,
2013-03-06 21:34:00,38.1,36.0,29.89,NNE,19,35.0,41.0,92,0.00,,,0.00,meteohub,2013-03-07 02:34:00,
2013-03-06 21:39:00,38.1,34.5,29.89,North,9,37.0,41.0,87,0.00,,,0.00,meteohub,2013-03-07 02:39:00,
2013-03-06 21:44:00,38.1,36.0,29.90,North,0,28.0,42.0,92,0.00,,,0.00,meteohub,2013-03-07 02:44:00,
2013-03-06 21:49:00,38.1,34.5,29.90,NNE,18,22.0,42.0,87,0.00,,,0.00,meteohub,2013-03-07 02:49:00,
2013-03-06 21:54:00,37.9,34.3,29.89,North,5,33.0,51.0,87,0.01,,,0.01,meteohub,2013-03-07 02:54:00,
2013-03-06 21:59:00,37.9,34.7,29.89,North,355,31.0,51.0,88,0.01,,,0.01,meteohub,2013-03-07 02:59:00,
2013-03-06 22:04:00,37.9,34.7,29.89,NNW,347,23.0,45.0,88,0.01,,,0.01,meteohub,2013-03-07 03:04:00,
2013-03-06 22:09:00,37.8,34.5,29.89,North,5,31.0,45.0,88,0.01,,,0.01,meteohub,2013-03-07 03:09:00,
2013-03-06 22:15:00,37.9,34.3,29.89,NNW,348,29.0,42.0,87,0.01,,,0.01,meteohub,2013-03-07 03:15:00,
2013-03-06 22:20:00,37.9,34.7,29.89,North,350,35.0,42.0,88,0.01,,,0.01,meteohub,2013-03-07 03:20:00,
2013-03-06 22:25:00,37.8,34.5,29.89,North,351,19.0,42.0,88,0.01,,,0.01,meteohub,2013-03-07 03:25:00,
2013-03-06 22:30:00,37.8,34.5,29.89,NNW,346,33.0,42.0,88,0.01,,,0.01,meteohub,2013-03-07 03:30:00,
2013-03-06 22:35:00,37.8,34.5,29.89,NNW,341,31.0,42.0,88,0.01,,,0.01,meteohub,2013-03-07 03:35:00,
2013-03-06 22:40:00,37.6,34.3,29.89,North,0,39.0,42.0,88,0.01,,,0.01,meteohub,2013-03-07 03:40:00,
2013-03-06 22:45:00,37.6,34.7,29.88,North,0,31.0,43.0,89,0.01,,,0.01,meteohub,2013-03-07 03:45:00,
2013-03-06 22:50:00,37.6,34.7,29.88,North,0,27.0,43.0,89,0.01,,,0.01,meteohub,2013-03-07 03:50:00,
2013-03-06 22:55:00,37.6,34.7,29.88,NNE,21,30.0,43.0,89,0.01,,,0.02,meteohub,2013-03-07 03:55:00,
2013-03-06 23:00:00,37.6,34.7,29.88,North,10,27.0,43.0,89,0.01,,,0.02,meteohub,2013-03-07 04:00:00,
2013-03-06 23:05:00,37.6,34.7,29.88,North,350,28.0,43.0,89,0.01,,,0.02,meteohub,2013-03-07 04:05:00,
2013-03-06 23:10:00,37.8,34.5,29.88,NNE,22,29.0,43.0,88,0.01,,,0.02,meteohub,2013-03-07 04:10:00,
2013-03-06 23:15:00,37.6,34.3,29.88,North,5,31.0,43.0,88,0.01,,,0.02,meteohub,2013-03-07 04:15:00,
2013-03-06 23:20:00,37.6,34.3,29.88,North,0,34.0,43.0,88,0.01,,,0.02,meteohub,2013-03-07 04:20:00,
2013-03-06 23:25:00,37.6,34.3,29.87,North,355,32.0,44.0,88,0.01,,,0.02,meteohub,2013-03-07 04:25:00,
2013-03-06 23:30:00,37.4,34.2,29.86,NNW,336,35.0,44.0,88,0.01,,,0.02,meteohub,2013-03-07 04:30:00,
2013-03-06 23:35:00,37.4,34.2,29.87,NNW,344,20.0,44.0,88,0.01,,,0.02,meteohub,2013-03-07 04:35:00,
2013-03-06 23:40:00,37.4,34.2,29.87,North,355,23.0,44.0,88,0.01,,,0.02,meteohub,2013-03-07 04:40:00,
2013-03-06 23:45:00,37.6,34.3,29.87,NNW,347,28.0,44.0,88,0.01,,,0.02,meteohub,2013-03-07 04:45:00,
2013-03-06 23:50:00,37.6,34.3,29.87,North,0,28.0,44.0,88,0.01,,,0.02,meteohub,2013-03-07 04:50:00,
2013-03-06 23:53:00,37.4,34.2,29.87,North,5,35.0,48.0,88,0.00,,,0.02,meteohub,2013-03-07 04:53:00,
2013-03-06 23:57:00,37.4,34.2,29.87,North,355,23.0,48.0,88,0.00,,,0.02,meteohub,2013-03-07 04:57:00,